Time;durP1;ratioP1;P1;durP2;ratioP2;P2;SDS_P1;SDS_P2;PMS_P1;PMS_P2;Temp;Humidity;BMP_temperature;BMP_pressure;BME280_temperature;BME280_humidity;BME280_pressure;Samples;Min_cycle;Max_cycle;Signal;HPM_P1;HPM_P2
2023/01/11 00:02:15;;;;;;;4.75;1.60;;;;;;;3.01;88.29;99190.28;5092644;28;20051;-65
2023/01/11 00:05:00;;;;;;;4.90;1.38;;;;;;;2.99;87.84;99187.75;5081882;28;20036;-65
2023/01/11 00:07:44;;;;;;;3.38;1.40;;;;;;;3.02;87.98;99190.25;5085161;28;20533;-65
2023/01/11 00:10:29;;;;;;;1.90;1.00;;;;;;;3.01;86.95;99193.72;5098290;28;20040;-65
2023/01/11 00:13:14;;;;;;;3.45;1.38;;;;;;;2.92;86.67;99201.78;5092531;28;20036;-65
2023/01/11 00:16:04;;;;;;;3.30;1.38;;;;;;;2.96;86.37;99193.03;5091844;28;20115;-66
2023/01/11 00:18:49;;;;;;;1.90;1.17;;;;;;;2.92;86.33;99199.19;5092962;28;20052;-65
2023/01/11 00:21:34;;;;;;;3.50;1.50;;;;;;;2.90;86.49;99190.63;5092485;28;20467;-66
2023/01/11 00:24:19;;;;;;;3.00;1.70;;;;;;;2.83;87.06;99188.22;5093080;28;20044;-65
2023/01/11 00:27:04;;;;;;;4.25;1.33;;;;;;;2.83;86.64;99179.59;5105047;28;20130;-66
2023/01/11 00:29:48;;;;;;;4.28;1.45;;;;;;;2.88;85.87;99185.50;5091691;28;20050;-65
2023/01/11 00:32:33;;;;;;;4.05;1.42;;;;;;;2.76;86.48;99186.69;5093566;28;20112;-66
2023/01/11 00:35:17;;;;;;;5.22;1.42;;;;;;;2.77;86.63;99182.38;5109930;28;20534;-66
2023/01/11 00:38:02;;;;;;;3.65;1.50;;;;;;;2.78;85.65;99182.34;5087847;28;20048;-66
2023/01/11 00:40:47;;;;;;;3.78;1.25;;;;;;;2.71;87.00;99173.91;5107408;28;20073;-65
2023/01/11 00:49:39;;;;;;;2.20;1.20;;;;;;;2.67;87.90;99168.88;5089278;28;20058;-65
2023/01/11 00:52:24;;;;;;;4.25;1.55;;;;;;;2.76;88.15;99172.94;5080294;28;20043;-65
2023/01/11 00:55:15;;;;;;;3.67;1.42;;;;;;;2.69;87.93;99160.16;5091537;28;20379;-65
2023/01/11 00:58:00;;;;;;;4.53;1.38;;;;;;;2.70;87.00;99181.72;5093531;28;20109;-65
2023/01/11 01:00:44;;;;;;;5.03;1.25;;;;;;;2.66;87.42;99178.34;5102506;28;20043;-65
2023/01/11 01:03:29;;;;;;;4.20;1.30;;;;;;;2.63;86.80;99177.63;5091757;28;20122;-64
2023/01/11 01:06:15;;;;;;;2.58;1.30;;;;;;;2.66;86.14;99186.13;5091447;28;20063;-64
2023/01/11 01:09:00;;;;;;;2.00;1.15;;;;;;;2.59;86.58;99187.22;5096177;28;20410;-64
2023/01/11 01:11:45;;;;;;;3.78;1.65;;;;;;;2.65;86.43;99199.09;5108614;28;20044;-65
2023/01/11 01:14:32;;;;;;;4.50;1.30;;;;;;;2.67;86.13;99193.00;5097461;28;20487;-65
2023/01/11 01:17:17;;;;;;;3.33;1.42;;;;;;;2.62;85.26;99184.53;5075777;28;20335;-65
2023/01/11 01:20:02;;;;;;;3.08;1.40;;;;;;;2.55;85.74;99199.38;5097532;28;20047;-65
2023/01/11 01:22:48;;;;;;;2.72;1.38;;;;;;;2.58;85.59;99194.09;5094916;28;20035;-65
2023/01/11 01:25:35;;;;;;;3.53;1.63;;;;;;;2.51;86.17;99194.34;5095192;28;20040;-65
2023/01/11 01:28:20;;;;;;;3.72;1.35;;;;;;;2.55;86.11;99198.50;5101258;28;20060;-65
2023/01/11 01:31:05;;;;;;;4.82;1.45;;;;;;;2.55;85.85;99201.97;5076112;28;20073;-65
2023/01/11 01:33:50;;;;;;;4.60;1.63;;;;;;;2.56;86.12;99198.47;5093478;28;20040;-64
2023/01/11 01:36:34;;;;;;;5.10;1.40;;;;;;;2.54;86.16;99200.28;5081993;28;20051;-64
2023/01/11 01:39:19;;;;;;;5.05;1.70;;;;;;;2.53;85.84;99206.31;5083776;28;20042;-64
2023/01/11 01:42:05;;;;;;;3.25;1.30;;;;;;;2.47;86.02;99206.50;5110903;28;20067;-64
2023/01/11 01:44:56;;;;;;;5.22;1.40;;;;;;;2.45;85.45;99211.72;5098609;28;20048;-64
2023/01/11 01:47:55;;;;;;;5.32;1.50;;;;;;;2.26;88.94;99203.63;5095502;28;20059;-65
2023/01/11 01:51:04;;;;;;;4.47;2.00;;;;;;;1.96;93.47;99208.72;5095141;28;20047;-64
2023/01/11 01:53:53;;;;;;;6.72;2.58;;;;;;;1.71;96.09;99209.34;5098981;28;20042;-66
2023/01/11 01:56:51;;;;;;;3.30;2.00;;;;;;;1.56;98.23;99208.00;5090678;28;20464;-64
2023/01/11 01:59:35;;;;;;;3.40;1.98;;;;;;;1.43;99.56;99200.53;5091731;28;20036;-64
2023/01/11 02:02:23;;;;;;;4.20;1.75;;;;;;;1.34;100.00;99208.47;5098879;28;20073;-65
2023/01/11 02:05:08;;;;;;;4.88;2.03;;;;;;;1.25;100.00;99212.16;5079848;28;20032;-65
2023/01/11 02:07:56;;;;;;;5.57;2.15;;;;;;;1.16;100.00;99210.63;5107957;28;20478;-65
2023/01/11 02:10:40;;;;;;;5.07;2.08;;;;;;;1.07;100.00;99201.38;5104823;28;20035;-65
2023/01/11 02:13:25;;;;;;;5.07;2.15;;;;;;;1.04;100.00;99208.31;5098601;28;20039;-65
2023/01/11 02:16:13;;;;;;;3.53;1.70;;;;;;;0.97;100.00;99213.63;5105280;28;20051;-65
2023/01/11 02:19:00;;;;;;;4.60;1.90;;;;;;;0.97;100.00;99203.28;5077784;28;20035;-65
2023/01/11 02:22:13;;;;;;;4.53;1.80;;;;;;;0.94;100.00;99200.78;5098682;28;20047;-65
2023/01/11 02:25:36;;;;;;;4.28;1.60;;;;;;;1.06;100.00;99198.81;5107611;28;20134;-64
2023/01/11 02:28:37;;;;;;;4.40;1.70;;;;;;;1.13;99.41;99195.19;5008524;28;20517;-65
2023/01/11 02:31:35;;;;;;;3.17;1.58;;;;;;;1.08;99.43;99195.31;5002673;28;20072;-65
2023/01/11 02:34:22;;;;;;;5.13;2.10;;;;;;;1.26;97.22;99194.94;4997110;28;20045;-65
2023/01/11 02:37:15;;;;;;;4.45;1.58;;;;;;;1.30;96.17;99194.81;5007928;28;20481;-64
2023/01/11 02:40:06;;;;;;;;;;;;;;;1.28;97.05;99187.97;5001324;28;20041;-65
2023/01/11 02:46:11;;;;;;;5.90;2.60;;;;;;;1.03;100.00;99191.16;4995903;28;20129;-65
2023/01/11 02:49:05;;;;;;;4.20;1.77;;;;;;;0.91;100.00;99182.78;4997309;28;20054;-64
2023/01/11 02:51:54;;;;;;;5.25;1.98;;;;;;;1.10;98.08;99195.28;4996509;28;20509;-64
2023/01/11 02:54:44;;;;;;;5.85;1.70;;;;;;;1.30;95.11;99196.53;5007616;28;20046;-65
2023/01/11 02:57:29;;;;;;;4.20;1.88;;;;;;;1.38;94.23;99192.06;4995947;28;20393;-65
2023/01/11 03:00:16;;;;;;;2.72;1.48;;;;;;;1.28;94.82;99194.00;5010050;28;20050;-65
2023/01/11 03:03:05;;;;;;;3.63;1.67;;;;;;;1.32;94.80;99185.28;4996742;28;20069;-65
2023/01/11 03:06:04;;;;;;;5.03;1.60;;;;;;;1.33;94.57;99174.09;5082099;28;20047;-65
2023/01/11 03:09:25;;;;;;;4.70;1.77;;;;;;;1.33;94.25;99178.41;5098815;28;20040;-65
2023/01/11 03:15:47;;;;;;;3.83;1.55;;;;;;;1.28;94.21;99193.16;5110875;28;20044;-64
2023/01/11 03:18:52;;;;;;;4.97;1.45;;;;;;;1.26;94.12;99190.59;5105949;28;20050;-64
2023/01/11 03:22:02;;;;;;;3.40;1.67;;;;;;;1.25;94.05;99185.47;5091628;28;20111;-64
2023/01/11 03:24:54;;;;;;;5.00;1.50;;;;;;;1.23;94.38;99188.09;5094098;28;20040;-66
2023/01/11 03:27:50;;;;;;;3.10;1.55;;;;;;;1.18;94.41;99189.94;5080581;28;20474;-65
2023/01/11 03:30:45;;;;;;;3.92;1.90;;;;;;;1.16;94.63;99184.81;5092413;28;20157;-65
2023/01/11 03:34:01;;;;;;;3.65;1.60;;;;;;;1.18;94.70;99189.94;5095274;28;20482;-65
2023/01/11 03:36:52;;;;;;;3.88;1.80;;;;;;;1.10;95.40;99197.84;5091874;28;20039;-65
2023/01/11 03:39:55;;;;;;;5.93;2.10;;;;;;;0.97;97.08;99194.69;5093380;28;20032;-65
2023/01/11 03:46:07;;;;;;;4.55;2.20;;;;;;;0.78;100.00;99191.69;5092211;28;20044;-64
2023/01/11 03:49:08;;;;;;;3.83;1.88;;;;;;;0.68;100.00;99183.28;5104590;28;20161;-66
2023/01/11 03:51:55;;;;;;;5.10;2.08;;;;;;;0.68;100.00;99183.28;5098993;28;20048;-66
2023/01/11 03:54:41;;;;;;;4.57;2.28;;;;;;;0.64;100.00;99185.06;5086758;28;20044;-67
2023/01/11 03:57:36;;;;;;;3.63;1.77;;;;;;;0.60;100.00;99191.19;5096578;28;20170;-66
2023/01/11 04:00:23;;;;;;;5.75;2.05;;;;;;;0.61;100.00;99179.97;5080000;28;20093;-66
2023/01/11 04:03:08;;;;;;;4.50;2.47;;;;;;;0.63;100.00;99180.81;5095936;28;20487;-66
2023/01/11 04:05:59;;;;;;;6.38;1.95;;;;;;;0.62;100.00;99168.78;5090673;28;20094;-65
2023/01/11 04:08:43;;;;;;;3.53;2.00;;;;;;;0.61;100.00;99177.41;5086955;28;20044;-65
2023/01/11 04:11:28;;;;;;;3.60;2.05;;;;;;;0.57;100.00;99175.78;5091401;28;20470;-65
2023/01/11 04:14:13;;;;;;;5.50;2.08;;;;;;;0.51;100.00;99179.31;5076353;28;20036;-65
2023/01/11 04:16:58;;;;;;;4.93;2.05;;;;;;;0.47;100.00;99175.94;5085503;28;20036;-64
2023/01/11 04:19:43;;;;;;;3.65;2.30;;;;;;;0.44;100.00;99191.47;5097894;28;20388;-64
2023/01/11 04:22:28;;;;;;;5.65;2.67;;;;;;;0.44;100.00;99188.91;5086609;28;20114;-65
2023/01/11 04:25:12;;;;;;;5.40;2.30;;;;;;;0.41;100.00;99180.41;5092345;28;20051;-66
2023/01/11 04:27:58;;;;;;;4.35;2.50;;;;;;;0.40;100.00;99181.25;5080246;28;20035;-68
2023/01/11 04:30:43;;;;;;;7.32;2.35;;;;;;;0.36;100.00;99173.59;5108703;28;20039;-66
2023/01/11 04:33:27;;;;;;;6.55;2.30;;;;;;;0.39;100.00;99182.16;5105422;28;20075;-66
2023/01/11 04:36:12;;;;;;;5.38;2.30;;;;;;;0.37;100.00;99179.59;5085181;28;20505;-66
2023/01/11 04:38:57;;;;;;;7.05;2.47;;;;;;;0.36;100.00;99180.47;5097033;28;20046;-66
2023/01/11 04:44:49;;;;;;;8.75;2.35;;;;;;;0.35;100.00;99176.22;5088612;28;20047;-65
2023/01/11 04:47:34;;;;;;;6.72;2.70;;;;;;;0.31;100.00;99178.00;5093223;28;20436;-65
2023/01/11 04:50:19;;;;;;;5.60;2.55;;;;;;;0.34;100.00;99171.94;5097720;28;20445;-66
2023/01/11 04:53:03;;;;;;;6.68;2.40;;;;;;;0.33;100.00;99173.66;5098373;28;20424;-66
2023/01/11 04:55:48;;;;;;;4.20;2.40;;;;;;;0.35;100.00;99181.34;5089563;28;20040;-65
2023/01/11 04:58:34;;;;;;;5.20;2.40;;;;;;;0.34;100.00;99175.34;5090650;28;20036;-65
2023/01/11 05:01:20;;;;;;;7.28;2.80;;;;;;;0.34;100.00;99177.09;5092312;28;20048;-66
2023/01/11 05:04:04;;;;;;;9.55;2.85;;;;;;;0.31;100.00;99174.59;5077695;28;20044;-65
2023/01/11 05:06:49;;;;;;;6.22;2.50;;;;;;;0.30;100.00;99178.88;5092704;28;20110;-66
2023/01/11 05:09:34;;;;;;;4.93;2.15;;;;;;;0.30;100.00;99180.59;5100624;28;20040;-66
2023/01/11 05:12:19;;;;;;;5.55;2.35;;;;;;;0.35;100.00;99177.06;5091115;28;20044;-65
2023/01/11 05:15:04;;;;;;;5.72;2.67;;;;;;;0.36;100.00;99167.56;5088975;28;20116;-64
2023/01/11 05:17:50;;;;;;;5.93;2.90;;;;;;;0.35;100.00;99173.63;5090119;28;20050;-67
2023/01/11 05:20:35;;;;;;;5.57;2.30;;;;;;;0.32;100.00;99174.53;5066140;28;20101;-66
2023/01/11 05:23:21;;;;;;;5.32;2.50;;;;;;;0.31;100.00;99174.59;5091365;28;20048;-67
2023/01/11 05:26:09;;;;;;;7.00;2.60;;;;;;;0.28;100.00;99178.03;5085642;28;20126;-67
2023/01/11 05:28:56;;;;;;;5.10;2.53;;;;;;;0.27;100.00;99175.50;5091981;28;20043;-68
2023/01/11 05:31:40;;;;;;;5.80;2.40;;;;;;;0.21;100.00;99174.75;5090116;28;20040;-67
2023/01/11 05:34:25;;;;;;;12.20;5.50;;;;;;;0.17;100.00;99172.25;5095312;28;20115;-67
2023/01/11 05:37:10;;;;;;;5.63;2.67;;;;;;;0.17;100.00;99172.25;5093372;28;20040;-66
2023/01/11 05:39:54;;;;;;;6.57;2.95;;;;;;;0.17;100.00;99172.25;5093635;28;20104;-66
2023/01/11 05:42:39;;;;;;;6.80;2.60;;;;;;;0.14;100.00;99170.59;5099510;28;20050;-66
2023/01/11 05:45:34;;;;;;;6.68;3.17;;;;;;;0.17;100.00;99169.69;5104134;28;20036;-63
2023/01/11 05:48:19;;;;;;;7.70;2.67;;;;;;;0.17;100.00;99174.84;5094469;28;20075;-67
2023/01/11 05:51:04;;;;;;;4.68;2.65;;;;;;;0.20;100.00;99167.03;5106414;28;20036;-64
2023/01/11 05:53:50;;;;;;;5.22;2.80;;;;;;;0.22;100.00;99171.31;5097562;28;20128;-63
2023/01/11 05:56:35;;;;;;;6.00;2.55;;;;;;;0.35;100.00;99181.34;5059056;28;20119;-64
2023/01/11 05:59:19;;;;;;;7.88;2.85;;;;;;;0.84;100.00;99181.22;5090212;28;20039;-63
2023/01/11 06:02:04;;;;;;;9.48;2.60;;;;;;;1.29;100.00;99184.53;5079001;28;20024;-65
2023/01/11 06:04:49;;;;;;;10.43;3.28;;;;;;;1.62;100.00;99183.75;5082234;28;20036;-64
2023/01/11 06:07:34;;;;;;;5.90;2.67;;;;;;;1.77;100.00;99177.34;5089659;28;20055;-65
2023/01/11 06:10:18;;;;;;;7.13;2.70;;;;;;;0.84;100.00;99181.22;5097012;28;20088;-64
2023/01/11 06:16:14;;;;;;;5.18;2.42;;;;;;;0.67;100.00;99191.91;5068439;28;20039;-65
2023/01/11 06:18:58;;;;;;;6.33;2.40;;;;;;;0.45;100.00;99187.19;5102095;28;20477;-65
2023/01/11 06:21:43;;;;;;;5.75;2.75;;;;;;;0.38;100.00;99188.19;5089624;28;20274;-63
2023/01/11 06:24:31;;;;;;;5.47;3.60;;;;;;;0.33;100.00;99186.53;5092487;28;20032;-63
2023/01/11 06:27:17;;;;;;;5.03;2.53;;;;;;;0.32;100.00;99192.59;5105067;28;20398;-64
2023/01/11 06:30:02;;;;;;;5.72;2.55;;;;;;;0.34;100.00;99189.97;5109724;28;20065;-64
2023/01/11 06:32:46;;;;;;;7.28;2.90;;;;;;;0.36;100.00;99188.19;5084036;28;20108;-63
2023/01/11 06:35:33;;;;;;;4.90;2.58;;;;;;;0.34;100.00;99180.50;5099054;28;20035;-64
2023/01/11 06:38:19;;;;;;;5.97;2.90;;;;;;;0.33;100.00;99175.38;5083282;28;20407;-65
2023/01/11 06:41:07;;;;;;;5.18;2.70;;;;;;;0.42;100.00;99174.34;5093043;28;20040;-64
2023/01/11 06:43:52;;;;;;;8.27;2.30;;;;;;;0.73;100.00;99184.03;5101518;28;20083;-66
2023/01/11 06:46:36;;;;;;;5.93;2.67;;;;;;;1.26;97.67;99175.09;5090476;28;20044;-64
2023/01/11 06:49:22;;;;;;;6.78;2.80;;;;;;;1.73;95.02;99176.56;5061043;28;20043;-63
2023/01/11 06:52:07;;;;;;;4.50;2.33;;;;;;;2.02;92.58;99185.31;5112942;28;20514;-64
2023/01/11 06:54:51;;;;;;;6.05;2.33;;;;;;;2.31;90.73;99186.25;5090347;28;20063;-65
2023/01/11 06:57:36;;;;;;;4.55;2.10;;;;;;;2.44;88.42;99186.75;5102182;28;20082;-64
2023/01/11 07:00:22;;;;;;;4.38;1.95;;;;;;;2.70;87.43;99182.56;5087383;28;20051;-64
2023/01/11 07:03:07;;;;;;;5.97;2.38;;;;;;;3.23;84.86;99185.31;5074513;28;20040;-64
2023/01/11 07:05:55;;;;;;;6.90;2.55;;;;;;;3.56;83.09;99179.06;5063094;28;20127;-64
2023/01/11 07:08:41;;;;;;;8.07;2.33;;;;;;;4.03;80.70;99169.75;5107651;28;20404;-64
2023/01/11 07:11:26;;;;;;;4.30;1.98;;;;;;;4.13;84.00;99176.28;5097012;28;20447;-64
2023/01/11 07:14:17;;;;;;;3.70;1.90;;;;;;;4.58;84.25;99175.56;5058953;28;20067;-63
2023/01/11 07:17:02;;;;;;;5.95;2.33;;;;;;;4.94;84.18;99188.06;5105619;28;20040;-63
2023/01/11 07:19:47;;;;;;;3.95;1.98;;;;;;;5.46;84.37;99176.53;5097329;28;20475;-65
2023/01/11 07:22:34;;;;;;;7.55;2.28;;;;;;;5.73;82.20;99171.06;5094463;28;20048;-65
2023/01/11 07:25:20;;;;;;;4.78;1.80;;;;;;;6.12;80.22;99163.44;5092103;28;20475;-64
2023/01/11 07:28:07;;;;;;;6.05;2.03;;;;;;;6.54;76.92;99161.59;5092477;28;20047;-62
2023/01/11 07:30:52;;;;;;;6.25;2.17;;;;;;;6.92;78.22;99158.09;5091873;28;20372;-62
2023/01/11 07:33:37;;;;;;;7.55;2.10;;;;;;;7.24;77.15;99160.94;5078651;28;20087;-62
2023/01/11 07:36:22;;;;;;;5.25;2.35;;;;;;;7.55;74.94;99152.53;5091549;28;20041;-63
2023/01/11 07:39:07;;;;;;;6.78;3.85;;;;;;;7.76;72.57;99158.44;5084654;28;20412;-62
2023/01/11 07:44:57;;;;;;;5.95;2.15;;;;;;;7.66;70.53;99165.88;5095313;28;20054;-60
2023/01/11 07:47:45;;;;;;;5.28;1.95;;;;;;;7.58;69.92;99168.88;5097949;28;20790;-61
2023/01/11 07:50:30;;;;;;;5.15;2.28;;;;;;;8.24;71.08;99166.41;5083032;28;20390;-60
2023/01/11 07:53:15;;;;;;;7.22;2.38;;;;;;;8.90;70.37;99170.81;5101637;28;20044;-63
2023/01/11 07:56:00;;;;;;;4.47;2.38;;;;;;;9.11;67.06;99157.47;5097794;28;20032;-62
2023/01/11 07:58:45;;;;;;;5.03;2.17;;;;;;;9.00;62.44;99160.69;5100917;28;20047;-62
2023/01/11 08:01:30;;;;;;;3.97;1.70;;;;;;;9.35;63.15;99163.06;5103173;28;20034;-62
2023/01/11 08:04:16;;;;;;;3.75;1.92;;;;;;;9.55;62.78;99163.69;5096226;28;20104;-64
2023/01/11 08:07:00;;;;;;;3.00;2.00;;;;;;;9.84;61.69;99163.75;5104313;28;20044;-64
2023/01/11 08:09:45;;;;;;;5.50;2.40;;;;;;;9.99;63.07;99166.41;5090954;28;20044;-64
2023/01/11 08:15:37;;;;;;;3.60;1.60;;;;;;;10.75;57.84;99157.53;5095052;28;20093;-64
2023/01/11 08:18:22;;;;;;;4.88;1.45;;;;;;;11.06;60.51;99151.19;5102547;28;20543;-65
2023/01/11 08:21:07;;;;;;;2.85;1.23;;;;;;;11.45;63.98;99148.66;5086605;28;20155;-66
2023/01/11 08:23:53;;;;;;;1.95;0.90;;;;;;;11.44;51.51;99167.13;5090464;28;20155;-67
2023/01/11 08:26:37;;;;;;;4.03;1.50;;;;;;;11.60;53.53;99169.59;5088807;28;20040;-60
2023/01/11 08:29:24;;;;;;;7.80;1.83;;;;;;;10.82;53.60;99170.13;5092133;28;20036;-59
2023/01/11 08:32:11;;;;;;;2.53;1.40;;;;;;;10.66;52.15;99172.03;5083455;28;20127;-59
2023/01/11 08:34:55;;;;;;;2.95;1.15;;;;;;;10.58;53.57;99175.97;5088002;28;20044;-65
2023/01/11 08:37:40;;;;;;;5.85;1.95;;;;;;;10.32;53.28;99167.06;5089559;28;20035;-62
2023/01/11 08:40:25;;;;;;;3.65;1.55;;;;;;;11.73;51.24;99176.63;5099857;28;20491;-63
2023/01/11 08:43:09;;;;;;;4.93;1.92;;;;;;;11.19;52.60;99168.72;5091911;28;20040;-61
2023/01/11 08:45:54;;;;;;;5.03;1.83;;;;;;;12.06;58.56;99168.25;5077305;28;20051;-63
2023/01/11 08:48:39;;;;;;;4.85;1.77;;;;;;;12.02;47.33;99172.03;5088322;28;20036;-63
2023/01/11 08:51:24;;;;;;;8.38;2.90;;;;;;;12.34;51.50;99159.44;5091691;28;20044;-59
2023/01/11 08:54:12;;;;;;;5.88;2.10;;;;;;;12.13;50.03;99162.59;5091756;28;20040;-65
2023/01/11 08:56:57;;;;;;;2.75;1.45;;;;;;;12.95;46.97;99148.13;5090298;28;20040;-68
2023/01/11 08:59:41;;;;;;;4.43;1.30;;;;;;;13.32;52.16;99139.31;5095232;28;20165;-71
2023/01/11 09:02:26;;;;;;;3.38;1.70;;;;;;;12.43;46.21;99135.16;5077028;28;20795;-72
2023/01/11 09:05:11;;;;;;;3.10;1.55;;;;;;;12.87;47.75;99138.19;5107956;28;20081;-66
2023/01/11 09:07:56;;;;;;;3.63;1.17;;;;;;;11.39;47.19;99142.97;5088410;28;20040;-73
2023/01/11 09:10:46;;;;;;;5.32;1.20;;;;;;;11.49;51.46;99143.22;5100702;28;20066;-68
2023/01/11 09:13:32;;;;;;;2.05;0.98;;;;;;;11.73;47.25;99145.13;5103026;28;20380;-66
2023/01/11 09:16:18;;;;;;;2.90;1.45;;;;;;;10.76;51.69;99143.47;5107833;28;20051;-69
2023/01/11 09:19:03;;;;;;;4.18;1.92;;;;;;;11.50;51.05;99144.88;5091691;28;20032;-70
2023/01/11 09:21:48;;;;;;;3.53;1.55;;;;;;;11.20;51.70;99145.03;5102167;28;20043;-65
2023/01/11 09:24:34;;;;;;;2.70;1.25;;;;;;;10.78;53.82;99138.97;5073479;28;20048;-69
2023/01/11 09:27:19;;;;;;;4.00;2.05;;;;;;;12.35;50.96;99135.69;5081347;28;20784;-66
2023/01/11 09:30:04;;;;;;;5.25;1.90;;;;;;;13.44;51.05;99132.31;5080647;28;20079;-71
2023/01/11 09:32:51;;;;;;;7.50;2.35;;;;;;;13.28;46.64;99130.84;5089060;28;20048;-72
2023/01/11 09:35:37;;;;;;;3.42;1.77;;;;;;;12.79;48.29;99127.38;5073363;28;20039;-63
2023/01/11 09:38:28;;;;;;;3.85;1.50;;;;;;;13.13;48.94;99122.28;5083051;28;20144;-66
2023/01/11 09:41:34;;;;;;;6.35;2.20;;;;;;;13.72;48.86;99118.91;5085604;28;20071;-67
2023/01/11 09:44:24;;;;;;;4.60;2.20;;;;;;;13.60;46.55;99115.41;5077752;28;20048;-65
2023/01/11 09:47:19;;;;;;;7.22;1.90;;;;;;;13.80;49.11;99106.00;5091405;28;20092;-67
2023/01/11 09:50:13;;;;;;;3.08;1.45;;;;;;;15.13;43.90;99114.94;5092679;28;20482;-67
2023/01/11 09:53:08;;;;;;;3.78;1.67;;;;;;;14.12;44.63;99107.06;5071660;28;20131;-66
2023/01/11 09:55:58;;;;;;;7.30;3.83;;;;;;;13.80;48.69;99106.00;5089972;28;20503;-66
2023/01/11 09:59:23;;;;;;;5.22;2.13;;;;;;;14.33;46.60;99101.09;5092341;28;20061;-67
2023/01/11 10:02:22;;;;;;;4.80;1.58;;;;;;;15.26;41.83;99108.63;5074788;28;20059;-67
2023/01/11 10:05:17;;;;;;;4.32;1.73;;;;;;;15.32;43.15;99100.22;5104302;28;20390;-67
2023/01/11 10:08:23;;;;;;;2.58;1.20;;;;;;;15.62;40.42;99097.75;5104064;28;20047;-67
2023/01/11 10:11:26;;;;;;;3.58;1.45;;;;;;;15.21;42.29;99092.38;5093859;28;20126;-67
2023/01/11 10:14:30;;;;;;;2.35;1.50;;;;;;;15.80;39.82;99092.72;5077978;28;20036;-67
2023/01/11 10:17:41;;;;;;;3.67;1.13;;;;;;;17.02;38.46;99084.88;5094152;28;20043;-66
2023/01/11 10:20:38;;;;;;;5.15;1.67;;;;;;;16.23;39.37;99076.78;5092939;28;20124;-66
2023/01/11 10:23:28;;;;;;;2.72;1.40;;;;;;;16.50;38.37;99076.16;5106981;28;20072;-66
2023/01/11 10:26:26;;;;;;;4.45;1.23;;;;;;;16.62;37.69;99076.06;5099521;28;20036;-65
2023/01/11 10:34:59;;;;;;;6.72;1.92;;;;;;;16.00;38.36;99092.84;5092595;28;20040;-66
2023/01/11 10:41:06;;;;;;;5.05;2.30;;;;;;;15.49;40.78;99095.31;5097663;28;20105;-65
2023/01/11 10:44:18;;;;;;;5.88;2.20;;;;;;;15.05;42.02;99077.78;5077376;28;20060;-66
2023/01/11 10:47:11;;;;;;;6.15;2.15;;;;;;;16.20;39.87;99074.44;5093161;28;20040;-67
2023/01/11 10:50:01;;;;;;;5.53;1.60;;;;;;;14.48;43.81;99070.03;5102013;28;20054;-66
2023/01/11 10:53:15;;;;;;;4.30;1.60;;;;;;;14.70;43.20;99065.66;5116487;28;20086;-66
2023/01/11 10:56:52;;;;;;;5.45;2.50;;;;;;;15.29;42.51;99074.09;5047903;28;20041;-67
2023/01/11 10:59:45;;;;;;;6.47;2.20;;;;;;;15.28;42.70;99064.47;5049349;28;20040;-64
2023/01/11 11:03:01;;;;;;;4.28;1.63;;;;;;;15.68;39.49;99072.66;5049465;28;20395;-67
2023/01/11 11:06:02;;;;;;;4.95;2.08;;;;;;;15.67;41.65;99068.34;5031931;28;20067;-66
2023/01/11 11:08:58;;;;;;;4.03;1.90;;;;;;;16.16;41.34;99052.72;5035447;28;20033;-65
2023/01/11 11:12:01;;;;;;;4.13;1.70;;;;;;;15.58;42.45;99054.09;5043096;28;20053;-66
2023/01/11 11:14:52;;;;;;;6.18;1.55;;;;;;;15.23;40.69;99048.19;5042203;28;20033;-67
2023/01/11 11:17:40;;;;;;;3.58;1.45;;;;;;;14.48;41.30;99049.78;5037133;28;20051;-66
2023/01/11 11:20:31;;;;;;;4.13;2.58;;;;;;;14.73;43.53;99044.31;5048438;28;20068;-65
2023/01/11 11:23:20;;;;;;;;;;;;;;;16.16;41.43;99044.78;5051084;28;20049;-66
2023/01/11 11:26:06;;;;;;;4.18;1.83;;;;;;;15.47;41.12;99053.22;5053682;28;19920;-66
2023/01/11 11:29:00;;;;;;;3.08;1.45;;;;;;;14.66;41.89;99043.97;5094042;28;20051;-67
2023/01/11 11:31:45;;;;;;;3.22;1.40;;;;;;;15.33;41.42;99030.63;5087376;28;20100;-64
2023/01/11 11:34:30;;;;;;;4.18;1.88;;;;;;;14.63;41.55;99031.03;5082051;28;20032;-64
2023/01/11 11:37:30;;;;;;;2.75;1.20;;;;;;;14.49;42.42;99030.34;5105602;28;20040;-64
2023/01/11 11:40:37;;;;;;;6.15;1.85;;;;;;;15.43;42.18;99029.84;5099031;28;20062;-64
2023/01/11 11:43:25;;;;;;;4.03;1.90;;;;;;;15.56;42.90;99025.19;5106307;28;20059;-64
2023/01/11 11:46:12;;;;;;;5.30;2.15;;;;;;;15.86;41.30;99006.84;5096739;28;20044;-66
2023/01/11 11:49:17;;;;;;;5.00;2.35;;;;;;;15.04;42.69;99002.25;5095983;28;20044;-65
2023/01/11 11:52:04;;;;;;;3.65;1.95;;;;;;;15.72;41.98;98990.38;5092297;28;20047;-65
2023/01/11 11:54:55;;;;;;;2.88;1.20;;;;;;;14.59;43.23;99005.91;5102541;28;20059;-63
2023/01/11 11:57:41;;;;;;;4.07;1.90;;;;;;;14.64;44.94;99004.56;5092495;28;20105;-65
2023/01/11 12:00:30;;;;;;;4.05;1.92;;;;;;;15.78;41.42;98994.31;5091729;28;20050;-64
2023/01/11 12:03:21;;;;;;;3.95;1.90;;;;;;;15.25;43.55;99004.03;5079670;28;20052;-64
2023/01/11 12:06:07;;;;;;;2.72;1.42;;;;;;;16.45;40.63;99003.53;5091615;28;20079;-67
2023/01/11 12:08:53;;;;;;;3.58;1.88;;;;;;;16.79;40.24;98997.84;5091228;28;20048;-65
2023/01/11 12:11:41;;;;;;;4.25;1.67;;;;;;;15.99;39.19;98999.53;5082920;28;20040;-65
2023/01/11 12:14:31;;;;;;;6.45;1.60;;;;;;;15.53;40.57;99001.69;5091339;28;20044;-64
2023/01/11 12:17:24;;;;;;;4.15;1.23;;;;;;;14.40;42.13;98997.69;5089373;28;20044;-65
2023/01/11 12:20:21;;;;;;;2.65;1.40;;;;;;;15.61;41.13;98996.59;5078326;28;20052;-65
2023/01/11 12:23:20;;;;;;;4.68;1.30;;;;;;;15.55;40.56;98991.00;5090864;28;20131;-65
2023/01/11 12:26:11;;;;;;;7.63;2.05;;;;;;;16.08;39.87;98984.69;5092225;28;20044;-64
2023/01/11 12:29:19;;;;;;;5.25;1.80;;;;;;;16.23;38.92;98995.72;5090447;28;20036;-65
2023/01/11 12:32:20;;;;;;;4.43;1.40;;;;;;;16.43;38.92;98990.44;5090605;28;20482;-64
2023/01/11 12:35:31;;;;;;;3.35;0.80;;;;;;;16.71;38.35;98992.41;5090317;28;20068;-64
2023/01/11 12:38:34;;;;;;;3.50;1.20;;;;;;;14.70;40.47;98990.03;5072505;28;20368;-64
2023/01/11 12:41:49;;;;;;;3.72;1.40;;;;;;;15.48;38.82;98978.34;5102564;28;20060;-64
2023/01/11 12:44:36;;;;;;;2.22;0.95;;;;;;;15.37;38.04;98983.72;5091706;28;20550;-64
2023/01/11 12:48:08;;;;;;;2.22;0.90;;;;;;;14.90;37.92;98993.69;5100358;28;20101;-64
2023/01/11 12:51:02;;;;;;;3.63;0.82;;;;;;;15.52;35.63;98992.94;5026928;28;20046;-62
2023/01/11 12:54:14;;;;;;;0.98;0.40;;;;;;;15.87;34.88;98980.28;5008247;28;20066;-64
2023/01/11 12:57:19;;;;;;;1.35;0.70;;;;;;;15.60;35.36;98979.06;5008434;28;20515;-65
2023/01/11 13:00:46;;;;;;;1.50;0.70;;;;;;;14.82;36.17;98985.56;5008353;28;20485;-64
2023/01/11 13:03:42;;;;;;;1.65;0.65;;;;;;;14.53;36.47;98975.59;4978013;28;20515;-65
2023/01/11 13:06:27;;;;;;;1.38;0.52;;;;;;;13.73;37.80;98973.13;5013011;28;20050;-65
2023/01/11 13:09:31;;;;;;;2.40;0.40;;;;;;;13.59;38.72;98976.84;5020486;28;20160;-65
2023/01/11 13:12:36;;;;;;;2.70;0.70;;;;;;;12.53;42.13;98975.88;5008288;28;20133;-65
2023/01/11 13:15:20;;;;;;;3.13;0.80;;;;;;;11.94;45.92;98980.06;5014529;28;20045;-64
2023/01/11 13:18:14;;;;;;;3.20;0.90;;;;;;;12.03;48.82;98973.28;5014622;28;20068;-64
2023/01/11 13:21:07;;;;;;;1.90;1.20;;;;;;;10.77;49.56;98975.66;5009957;28;20125;-58
2023/01/11 13:23:55;;;;;;;3.35;1.02;;;;;;;11.04;50.06;98963.44;5002012;28;20081;-65
2023/01/11 13:26:44;;;;;;;2.88;1.08;;;;;;;11.60;48.96;98956.19;5033338;28;20410;-65
2023/01/11 13:29:38;;;;;;;2.75;1.10;;;;;;;11.50;49.29;98959.47;5094742;28;20474;-66
2023/01/11 13:32:36;;;;;;;3.78;1.20;;;;;;;11.60;49.19;98950.94;5096272;28;20107;-63
2023/01/11 13:35:48;;;;;;;3.83;0.95;;;;;;;11.76;49.12;98958.56;5095128;28;20108;-64
2023/01/11 13:38:45;;;;;;;3.53;1.00;;;;;;;11.83;48.49;98965.91;5103441;28;20372;-66
2023/01/11 13:41:58;;;;;;;3.67;1.30;;;;;;;11.91;47.41;98965.34;5077269;28;20036;-66
2023/01/11 13:44:50;;;;;;;3.03;1.15;;;;;;;11.82;48.53;98966.84;5113689;28;20089;-64
2023/01/11 13:47:48;;;;;;;2.53;1.38;;;;;;;11.60;52.00;98956.19;5092707;28;20036;-67
2023/01/11 13:50:43;;;;;;;3.53;1.25;;;;;;;11.59;51.10;98952.72;5099786;28;20130;-66
2023/01/11 13:53:38;;;;;;;4.00;1.52;;;;;;;12.77;54.56;98947.88;5098570;28;20056;-66
2023/01/11 13:56:38;;;;;;;2.88;1.15;;;;;;;12.44;50.04;98958.16;5106608;28;20040;-65
2023/01/11 13:59:56;;;;;;;4.47;1.73;;;;;;;11.81;49.03;98964.34;5092049;28;20538;-65
2023/01/11 14:03:06;;;;;;;3.58;1.15;;;;;;;11.97;48.93;98960.63;5022819;28;20132;-66
2023/01/11 14:06:21;;;;;;;5.45;1.17;;;;;;;12.27;47.64;98968.09;5029109;28;20042;-66